Aérodrome :
LOGIN :

S'inscrire | Disclaimer

   EN    FR    IT 

 










Légende :    VFR   VFR Marginal   IFR   IFR Intensif   IFR Très Intensif
Visi : 
Plafond : 
>= 8 km
>= 3000ft
5 à 8 km
1000 à 3000 ft
1500m à 5 km
500 à 1000 ft
800 à 1500m
200 à 500 ft
< 800m
< 200 ft
Symboles :   Orages  Brouillard  Fortes neiges  Fortes précipitations  Vent > 20 kt
SIGMETs :   Divers  Orages  Givrage  Turbulence  Onde Orograph.  Cendres Volcan.






- Altitude de l'aérodrome : 1558 ft
- Code IATA : IOA


LGIO - Ioannina

DERNIER METAR :
  • 211350Z 00000KT 9999 FEW005 12/10 Q1014

METARs EXPIRÉS :
  • 211320Z 05002KT 9000 FEW005 SCT035 11/10 Q1014
  • 211250Z 33002KT 8000 FEW005 SCT035 11/09 Q1014
  • 211220Z 35003KT 6000 SCT005 SCT030 11/10 Q1014
  • 211150Z 00000KT 3500 BR BKN005 10/09 Q1014
  • 211120Z 35002KT 3000 BR OVC005 10/09 Q1015

TAF AMD TAF LGIO
Valide du 21 à 12h jusqu'au 21 à 21h UTC


211220Z 2112/2121 VRB03KT 3000 BKN005
BECMG 2113/2115 8000 SCT010



MET'MAP, la Météo Aéronautique d'un coup d'oeil ! - Copyright ORBIFLY Décembre 2007 - Disclaimer

ORBIFLY MET'MAP TEAM :

Programmation & Développement : Alexandra Zaïnal
Conception & Développement : Baudouin d'Aumeries
Co-Programmation & Développement : Marc-Olivier Méhu
Soutien technique & logistique : Manuel Goepfert

Contact : metmap@orbifly.com




SOURCES & CREDITS :

   NOAA